Flight Track Log - Related Links

Times and Time Zones

All times are in EDT time to prevent confusion due to time zone crossing. See the N465TP flight status page for this flight to view local times or setup timezone preferences in your user account.

Time Position Orientation Groundspeed Altitude Reporting Facility
EDT Latitude Longitude Course Direction KTS MPH feet Rate Location/Type
Wed 06:47:47 PM 45.3044 -111.5183 115° Southeast 139 160 11,400  Level Salt Lake Center
Wed 06:48:49 PM 45.2867 -111.4636 115° Southeast 149 171 12,700 1,355 Climbing Salt Lake Center
Wed 06:49:51 PM 45.2686 -111.4006 112° Southeast 167 192 14,200 1,355 Climbing Salt Lake Center
Wed 06:50:53 PM 45.2494 -111.3350 113° Southeast 176 203 15,500 1,210 Climbing Salt Lake Center
Wed 06:51:55 PM 45.2289 -111.2669 113° Southeast 185 213 16,700 1,113 Climbing Salt Lake Center
Wed 06:52:57 PM 45.2089 -111.1997 113° Southeast 185 213 17,800 1,016 Climbing Salt Lake Center
Wed 06:53:59 PM 45.1839 -111.1186 114° Southeast 187 215 18,800 581 Climbing Salt Lake Center
Wed 06:55:01 PM 45.1594 -111.0419 114° Southeast 205 236 19,000 97 Climbing Salt Lake Center
Wed 06:56:03 PM 45.1322 -110.9544 114° Southeast 230 265 19,000  Level Salt Lake Center
Wed 06:57:05 PM 45.1044 -110.8606 113° Southeast 239 275 19,000  Level Salt Lake Center
Wed 06:58:07 PM 45.0786 -110.7778 114° Southeast 240 276 19,000 -48 Level Salt Lake Center
Wed 06:59:09 PM 45.0489 -110.6806 113° Southeast 240 276 18,900  Descending Salt Lake Center
Wed 07:00:11 PM 45.0233 -110.5978 114° Southeast 240 276 19,000 48 Climbing Salt Lake Center
Wed 07:01:13 PM 45.0131 -110.4964 98° East 243 280 19,000 -48 Level Salt Lake Center
Wed 07:02:15 PM 45.0183 -110.4044 85° East 246 283 18,900 -48 Descending Salt Lake Center
Wed 07:03:17 PM 45.0242 -110.3114 85° East 246 283 18,900 48 Level Salt Lake Center
Wed 07:04:19 PM 45.0275 -110.2000 88° East 251 289 19,000 48 Climbing Salt Lake Center
Wed 07:05:21 PM 45.0289 -110.1044 89° East 254 292 19,000  Level Salt Lake Center
Wed 07:06:23 PM 44.9992 -110.0064 113° Southeast 246 283 19,000  Level Salt Lake Center
Wed 07:07:25 PM 44.9617 -109.9289 124° Southeast 248 285 19,000  Level Salt Lake Center
Wed 07:08:27 PM 44.9194 -109.8414 124° Southeast 244 281 19,000  Level Salt Lake Center
Wed 07:09:29 PM 44.8833 -109.7669 124° Southeast 242 278 19,000 -242 Level Salt Lake Center
Wed 07:10:31 PM 44.8411 -109.6806 125° Southeast 241 277 18,500 -968 Descending Salt Lake Center
Wed 07:11:33 PM 44.8042 -109.6072 125° Southeast 240 276 17,000 -1,415 Descending Salt Lake Center
Wed 07:12:34 PM 44.7692 -109.5372 125° Southeast 236 272 15,600 -1,268 Descending Salt Lake Center
Wed 07:13:36 PM 44.7328 -109.4592 123° Southeast 225 259 14,400 -823 Descending Salt Lake Center
Wed 07:14:38 PM 44.7142 -109.3956 112° Southeast 208 239 13,900 -677 Descending Salt Lake Center
Wed 07:15:40 PM 44.6997 -109.3261 106° East 181 208 13,000 -871 Descending Salt Lake Center
Wed 07:16:42 PM 44.6733 -109.2606 119° Southeast 177 204 12,100 -871 Descending Salt Lake Center

Login

Don't have an account? Register now (free) for customized features, flight alerts, and more!